Terminal Aerodrome Forecast
Issued by NWS

Home | Current Version | Previous Version | Text Only | Print | Product List | Glossary On
Versions: 1 2 3 4 5 6 7 8 9 10 11 12 13 14 15 16 17 18 19 20 21
000
FTUS45 KFGZ 301600 AAA
TAFPGA
TAF AMD
KPGA 301626Z 3016/3112 10008KT 5SM -RA SCT015 OVC025
      TEMPO 3016/3019 3SM -RA BR BKN015
      AMD NOT SKED=

USA.gov is the U.S. government's official web portal to all federal, state and local government web resources and services.